sensor_id;sensor_type;location;lat;lon;timestamp;P1;durP1;ratioP1;P2;durP2;ratioP2
13799;SDS011;6971;50.028;9.258;2022-08-19T00:03:23;23.43;;;20.97;;
13799;SDS011;6971;50.028;9.258;2022-08-19T00:08:24;27.53;;;21.67;;
13799;SDS011;6971;50.028;9.258;2022-08-19T00:13:24;24.13;;;21.63;;
13799;SDS011;6971;50.028;9.258;2022-08-19T00:18:25;26.93;;;22.33;;
13799;SDS011;6971;50.028;9.258;2022-08-19T00:23:27;24.63;;;22.03;;
13799;SDS011;6971;50.028;9.258;2022-08-19T00:28:28;25.90;;;22.70;;
13799;SDS011;6971;50.028;9.258;2022-08-19T00:33:48;26.77;;;23.13;;
13799;SDS011;6971;50.028;9.258;2022-08-19T00:38:50;28.87;;;22.93;;
13799;SDS011;6971;50.028;9.258;2022-08-19T00:49:03;25.80;;;22.03;;
13799;SDS011;6971;50.028;9.258;2022-08-19T00:54:10;24.70;;;22.10;;
13799;SDS011;6971;50.028;9.258;2022-08-19T00:59:12;25.20;;;22.50;;
13799;SDS011;6971;50.028;9.258;2022-08-19T01:04:28;27.20;;;23.30;;
13799;SDS011;6971;50.028;9.258;2022-08-19T01:09:29;25.57;;;22.73;;
13799;SDS011;6971;50.028;9.258;2022-08-19T01:14:31;27.10;;;23.50;;
13799;SDS011;6971;50.028;9.258;2022-08-19T01:19:35;27.53;;;24.37;;
13799;SDS011;6971;50.028;9.258;2022-08-19T01:24:40;27.13;;;23.40;;
13799;SDS011;6971;50.028;9.258;2022-08-19T01:29:58;25.60;;;22.87;;
13799;SDS011;6971;50.028;9.258;2022-08-19T01:34:59;26.10;;;23.30;;
13799;SDS011;6971;50.028;9.258;2022-08-19T01:40:02;25.60;;;23.00;;
13799;SDS011;6971;50.028;9.258;2022-08-19T01:45:04;26.63;;;23.53;;
13799;SDS011;6971;50.028;9.258;2022-08-19T01:50:07;29.70;;;24.60;;
13799;SDS011;6971;50.028;9.258;2022-08-19T01:55:12;26.83;;;23.90;;
13799;SDS011;6971;50.028;9.258;2022-08-19T02:00:16;29.67;;;23.17;;
13799;SDS011;6971;50.028;9.258;2022-08-19T02:05:19;29.93;;;26.07;;
13799;SDS011;6971;50.028;9.258;2022-08-19T02:10:21;26.27;;;23.47;;
13799;SDS011;6971;50.028;9.258;2022-08-19T02:15:23;29.27;;;24.20;;
13799;SDS011;6971;50.028;9.258;2022-08-19T02:20:26;27.13;;;23.53;;
13799;SDS011;6971;50.028;9.258;2022-08-19T02:25:27;26.60;;;23.80;;
13799;SDS011;6971;50.028;9.258;2022-08-19T02:30:28;28.37;;;25.37;;
13799;SDS011;6971;50.028;9.258;2022-08-19T02:35:32;30.53;;;25.27;;
13799;SDS011;6971;50.028;9.258;2022-08-19T02:40:33;34.27;;;25.67;;
13799;SDS011;6971;50.028;9.258;2022-08-19T02:45:54;27.07;;;23.73;;
13799;SDS011;6971;50.028;9.258;2022-08-19T02:50:55;26.40;;;22.37;;
13799;SDS011;6971;50.028;9.258;2022-08-19T02:55:57;27.07;;;22.97;;
13799;SDS011;6971;50.028;9.258;2022-08-19T03:00:58;30.17;;;24.60;;
13799;SDS011;6971;50.028;9.258;2022-08-19T03:06:10;26.90;;;24.13;;
13799;SDS011;6971;50.028;9.258;2022-08-19T03:11:21;28.70;;;25.60;;
13799;SDS011;6971;50.028;9.258;2022-08-19T03:16:26;27.40;;;24.27;;
13799;SDS011;6971;50.028;9.258;2022-08-19T03:21:30;25.23;;;22.53;;
13799;SDS011;6971;50.028;9.258;2022-08-19T03:26:32;25.27;;;22.67;;
13799;SDS011;6971;50.028;9.258;2022-08-19T03:31:35;26.53;;;23.73;;
13799;SDS011;6971;50.028;9.258;2022-08-19T03:36:36;25.67;;;22.30;;
13799;SDS011;6971;50.028;9.258;2022-08-19T03:41:53;29.47;;;25.63;;
13799;SDS011;6971;50.028;9.258;2022-08-19T03:46:58;29.27;;;25.40;;
13799;SDS011;6971;50.028;9.258;2022-08-19T03:52:00;27.63;;;24.63;;
13799;SDS011;6971;50.028;9.258;2022-08-19T03:57:02;26.40;;;23.60;;
13799;SDS011;6971;50.028;9.258;2022-08-19T04:02:06;26.03;;;22.27;;
13799;SDS011;6971;50.028;9.258;2022-08-19T04:07:11;30.03;;;22.73;;
13799;SDS011;6971;50.028;9.258;2022-08-19T04:12:17;25.73;;;23.00;;
13799;SDS011;6971;50.028;9.258;2022-08-19T04:17:18;24.97;;;22.30;;
13799;SDS011;6971;50.028;9.258;2022-08-19T04:22:19;28.07;;;25.03;;
13799;SDS011;6971;50.028;9.258;2022-08-19T04:27:20;28.30;;;23.80;;
13799;SDS011;6971;50.028;9.258;2022-08-19T04:32:21;26.20;;;23.43;;
13799;SDS011;6971;50.028;9.258;2022-08-19T04:37:22;26.50;;;23.27;;
13799;SDS011;6971;50.028;9.258;2022-08-19T04:42:26;28.23;;;24.80;;
13799;SDS011;6971;50.028;9.258;2022-08-19T04:47:41;26.43;;;23.60;;
13799;SDS011;6971;50.028;9.258;2022-08-19T04:52:44;27.00;;;22.27;;
13799;SDS011;6971;50.028;9.258;2022-08-19T04:57:45;25.83;;;23.00;;
13799;SDS011;6971;50.028;9.258;2022-08-19T05:02:48;27.80;;;23.17;;
13799;SDS011;6971;50.028;9.258;2022-08-19T05:07:50;26.97;;;24.03;;
13799;SDS011;6971;50.028;9.258;2022-08-19T05:12:51;25.57;;;22.80;;
13799;SDS011;6971;50.028;9.258;2022-08-19T05:17:52;28.60;;;24.10;;
13799;SDS011;6971;50.028;9.258;2022-08-19T05:23:12;29.37;;;24.10;;
13799;SDS011;6971;50.028;9.258;2022-08-19T05:28:26;25.37;;;22.67;;
13799;SDS011;6971;50.028;9.258;2022-08-19T05:33:28;25.47;;;22.87;;
13799;SDS011;6971;50.028;9.258;2022-08-19T05:38:30;25.47;;;22.83;;
13799;SDS011;6971;50.028;9.258;2022-08-19T05:43:31;25.77;;;22.83;;
13799;SDS011;6971;50.028;9.258;2022-08-19T05:48:34;26.37;;;23.50;;
13799;SDS011;6971;50.028;9.258;2022-08-19T05:53:37;27.13;;;23.87;;
13799;SDS011;6971;50.028;9.258;2022-08-19T05:58:38;26.77;;;23.00;;
13799;SDS011;6971;50.028;9.258;2022-08-19T06:03:39;25.27;;;22.60;;
13799;SDS011;6971;50.028;9.258;2022-08-19T06:08:40;26.97;;;22.27;;
13799;SDS011;6971;50.028;9.258;2022-08-19T06:13:44;26.30;;;22.33;;
13799;SDS011;6971;50.028;9.258;2022-08-19T06:18:51;23.90;;;21.37;;
13799;SDS011;6971;50.028;9.258;2022-08-19T06:23:55;24.50;;;21.23;;
13799;SDS011;6971;50.028;9.258;2022-08-19T06:28:58;22.80;;;20.50;;
13799;SDS011;6971;50.028;9.258;2022-08-19T06:34:01;23.70;;;21.20;;
13799;SDS011;6971;50.028;9.258;2022-08-19T06:39:04;23.97;;;21.50;;
13799;SDS011;6971;50.028;9.258;2022-08-19T06:44:08;31.70;;;23.57;;
13799;SDS011;6971;50.028;9.258;2022-08-19T06:49:09;25.80;;;23.20;;
13799;SDS011;6971;50.028;9.258;2022-08-19T06:54:17;25.43;;;22.30;;
13799;SDS011;6971;50.028;9.258;2022-08-19T06:59:20;26.23;;;22.80;;
13799;SDS011;6971;50.028;9.258;2022-08-19T07:04:26;28.00;;;24.63;;
13799;SDS011;6971;50.028;9.258;2022-08-19T07:09:29;24.23;;;21.67;;
13799;SDS011;6971;50.028;9.258;2022-08-19T07:14:30;25.23;;;22.30;;
13799;SDS011;6971;50.028;9.258;2022-08-19T07:19:32;24.87;;;20.90;;
13799;SDS011;6971;50.028;9.258;2022-08-19T07:24:35;23.97;;;21.47;;
13799;SDS011;6971;50.028;9.258;2022-08-19T07:29:37;21.10;;;19.00;;
13799;SDS011;6971;50.028;9.258;2022-08-19T07:34:39;24.53;;;21.90;;
13799;SDS011;6971;50.028;9.258;2022-08-19T07:39:42;24.90;;;20.93;;
13799;SDS011;6971;50.028;9.258;2022-08-19T07:44:43;23.40;;;19.47;;
13799;SDS011;6971;50.028;9.258;2022-08-19T07:49:44;22.43;;;20.07;;
13799;SDS011;6971;50.028;9.258;2022-08-19T07:54:45;21.40;;;18.23;;
13799;SDS011;6971;50.028;9.258;2022-08-19T07:59:46;22.40;;;18.53;;
13799;SDS011;6971;50.028;9.258;2022-08-19T08:04:47;21.43;;;17.80;;
13799;SDS011;6971;50.028;9.258;2022-08-19T08:10:07;19.67;;;17.67;;
13799;SDS011;6971;50.028;9.258;2022-08-19T08:15:10;19.40;;;15.77;;
13799;SDS011;6971;50.028;9.258;2022-08-19T08:20:19;16.70;;;15.07;;
13799;SDS011;6971;50.028;9.258;2022-08-19T08:25:31;17.70;;;15.17;;
13799;SDS011;6971;50.028;9.258;2022-08-19T08:30:32;15.43;;;13.80;;
13799;SDS011;6971;50.028;9.258;2022-08-19T08:35:33;15.40;;;13.80;;
13799;SDS011;6971;50.028;9.258;2022-08-19T08:40:42;17.63;;;13.80;;
13799;SDS011;6971;50.028;9.258;2022-08-19T08:45:48;13.53;;;12.10;;
13799;SDS011;6971;50.028;9.258;2022-08-19T08:50:56;15.17;;;12.90;;
13799;SDS011;6971;50.028;9.258;2022-08-19T08:56:00;14.50;;;13.00;;
13799;SDS011;6971;50.028;9.258;2022-08-19T09:01:04;15.30;;;12.53;;
13799;SDS011;6971;50.028;9.258;2022-08-19T09:11:19;14.03;;;11.30;;
13799;SDS011;6971;50.028;9.258;2022-08-19T09:16:39;15.10;;;11.77;;
13799;SDS011;6971;50.028;9.258;2022-08-19T09:21:42;13.50;;;11.43;;
13799;SDS011;6971;50.028;9.258;2022-08-19T09:26:43;10.77;;;9.53;;
13799;SDS011;6971;50.028;9.258;2022-08-19T09:31:44;11.23;;;9.73;;
13799;SDS011;6971;50.028;9.258;2022-08-19T09:36:46;12.77;;;8.97;;
13799;SDS011;6971;50.028;9.258;2022-08-19T09:41:47;10.93;;;9.73;;
13799;SDS011;6971;50.028;9.258;2022-08-19T09:46:50;11.00;;;8.77;;
13799;SDS011;6971;50.028;9.258;2022-08-19T09:51:52;8.33;;;7.53;;
13799;SDS011;6971;50.028;9.258;2022-08-19T09:56:58;7.73;;;6.83;;
13799;SDS011;6971;50.028;9.258;2022-08-19T10:02:02;8.47;;;6.40;;
13799;SDS011;6971;50.028;9.258;2022-08-19T10:07:04;8.27;;;5.73;;
13799;SDS011;6971;50.028;9.258;2022-08-19T10:12:06;7.63;;;6.30;;
13799;SDS011;6971;50.028;9.258;2022-08-19T10:17:08;6.57;;;5.70;;
13799;SDS011;6971;50.028;9.258;2022-08-19T10:22:09;7.80;;;7.07;;
13799;SDS011;6971;50.028;9.258;2022-08-19T10:27:14;7.63;;;6.93;;
13799;SDS011;6971;50.028;9.258;2022-08-19T10:32:16;8.00;;;7.20;;
13799;SDS011;6971;50.028;9.258;2022-08-19T10:37:18;8.23;;;6.27;;
13799;SDS011;6971;50.028;9.258;2022-08-19T10:42:18;8.03;;;6.47;;
13799;SDS011;6971;50.028;9.258;2022-08-19T10:47:20;8.30;;;6.70;;
13799;SDS011;6971;50.028;9.258;2022-08-19T10:52:23;6.83;;;5.70;;
13799;SDS011;6971;50.028;9.258;2022-08-19T10:57:37;7.77;;;7.00;;
13799;SDS011;6971;50.028;9.258;2022-08-19T11:02:38;5.70;;;5.10;;
13799;SDS011;6971;50.028;9.258;2022-08-19T11:07:40;7.30;;;5.70;;
13799;SDS011;6971;50.028;9.258;2022-08-19T11:12:42;5.43;;;4.93;;
13799;SDS011;6971;50.028;9.258;2022-08-19T11:17:44;3.70;;;3.40;;
13799;SDS011;6971;50.028;9.258;2022-08-19T11:22:47;3.33;;;3.03;;
13799;SDS011;6971;50.028;9.258;2022-08-19T11:27:49;8.13;;;3.60;;
13799;SDS011;6971;50.028;9.258;2022-08-19T11:32:53;3.50;;;3.10;;
13799;SDS011;6971;50.028;9.258;2022-08-19T11:37:53;3.43;;;3.13;;
13799;SDS011;6971;50.028;9.258;2022-08-19T11:42:54;3.73;;;3.30;;
13799;SDS011;6971;50.028;9.258;2022-08-19T11:47:55;3.40;;;3.10;;
13799;SDS011;6971;50.028;9.258;2022-08-19T11:52:57;3.03;;;2.83;;
13799;SDS011;6971;50.028;9.258;2022-08-19T11:57:58;3.63;;;3.30;;
13799;SDS011;6971;50.028;9.258;2022-08-19T12:02:59;4.37;;;3.47;;
13799;SDS011;6971;50.028;9.258;2022-08-19T12:08:00;3.60;;;3.30;;
13799;SDS011;6971;50.028;9.258;2022-08-19T12:13:01;7.03;;;3.57;;
13799;SDS011;6971;50.028;9.258;2022-08-19T12:18:02;4.60;;;2.93;;
13799;SDS011;6971;50.028;9.258;2022-08-19T12:23:17;3.20;;;2.90;;
13799;SDS011;6971;50.028;9.258;2022-08-19T12:28:21;3.70;;;3.17;;
13799;SDS011;6971;50.028;9.258;2022-08-19T12:33:24;3.37;;;2.90;;
13799;SDS011;6971;50.028;9.258;2022-08-19T12:38:28;4.63;;;3.37;;
13799;SDS011;6971;50.028;9.258;2022-08-19T12:43:29;3.90;;;3.53;;
13799;SDS011;6971;50.028;9.258;2022-08-19T12:48:46;4.00;;;3.53;;
13799;SDS011;6971;50.028;9.258;2022-08-19T12:53:47;4.37;;;3.47;;
13799;SDS011;6971;50.028;9.258;2022-08-19T12:58:50;4.30;;;3.97;;
13799;SDS011;6971;50.028;9.258;2022-08-19T13:03:51;8.77;;;5.67;;
13799;SDS011;6971;50.028;9.258;2022-08-19T13:08:54;4.23;;;3.83;;
13799;SDS011;6971;50.028;9.258;2022-08-19T13:14:14;4.73;;;3.43;;
13799;SDS011;6971;50.028;9.258;2022-08-19T13:19:15;6.00;;;3.80;;
13799;SDS011;6971;50.028;9.258;2022-08-19T13:24:17;4.60;;;4.20;;
13799;SDS011;6971;50.028;9.258;2022-08-19T13:29:18;4.03;;;3.50;;
13799;SDS011;6971;50.028;9.258;2022-08-19T13:34:38;4.13;;;3.83;;
13799;SDS011;6971;50.028;9.258;2022-08-19T13:39:40;5.67;;;3.60;;
13799;SDS011;6971;50.028;9.258;2022-08-19T13:44:41;4.10;;;3.70;;
13799;SDS011;6971;50.028;9.258;2022-08-19T13:49:42;3.93;;;3.63;;
13799;SDS011;6971;50.028;9.258;2022-08-19T13:54:43;7.53;;;4.33;;
13799;SDS011;6971;50.028;9.258;2022-08-19T13:59:44;4.90;;;3.50;;
13799;SDS011;6971;50.028;9.258;2022-08-19T14:04:45;7.87;;;4.37;;
13799;SDS011;6971;50.028;9.258;2022-08-19T14:09:47;4.53;;;3.80;;
13799;SDS011;6971;50.028;9.258;2022-08-19T14:14:48;5.00;;;3.97;;
13799;SDS011;6971;50.028;9.258;2022-08-19T14:19:57;4.07;;;3.60;;
13799;SDS011;6971;50.028;9.258;2022-08-19T14:25:00;5.07;;;3.50;;
13799;SDS011;6971;50.028;9.258;2022-08-19T14:30:02;5.87;;;3.70;;
13799;SDS011;6971;50.028;9.258;2022-08-19T14:35:21;4.20;;;3.80;;
13799;SDS011;6971;50.028;9.258;2022-08-19T14:40:24;4.13;;;3.77;;
13799;SDS011;6971;50.028;9.258;2022-08-19T14:45:27;3.47;;;3.17;;
13799;SDS011;6971;50.028;9.258;2022-08-19T14:50:30;4.10;;;3.57;;
13799;SDS011;6971;50.028;9.258;2022-08-19T14:55:31;4.60;;;3.70;;
13799;SDS011;6971;50.028;9.258;2022-08-19T15:00:33;4.93;;;3.80;;
13799;SDS011;6971;50.028;9.258;2022-08-19T15:05:34;3.70;;;3.40;;
13799;SDS011;6971;50.028;9.258;2022-08-19T15:10:38;4.03;;;3.73;;
13799;SDS011;6971;50.028;9.258;2022-08-19T15:15:39;4.63;;;4.23;;
13799;SDS011;6971;50.028;9.258;2022-08-19T15:20:40;5.03;;;4.50;;
13799;SDS011;6971;50.028;9.258;2022-08-19T15:25:42;4.80;;;4.40;;
13799;SDS011;6971;50.028;9.258;2022-08-19T15:30:47;5.93;;;5.33;;
13799;SDS011;6971;50.028;9.258;2022-08-19T15:35:49;6.10;;;5.50;;
13799;SDS011;6971;50.028;9.258;2022-08-19T15:40:52;7.30;;;6.60;;
13799;SDS011;6971;50.028;9.258;2022-08-19T15:45:54;7.17;;;6.57;;
13799;SDS011;6971;50.028;9.258;2022-08-19T15:50:54;7.60;;;6.90;;
13799;SDS011;6971;50.028;9.258;2022-08-19T15:55:55;7.50;;;6.97;;
13799;SDS011;6971;50.028;9.258;2022-08-19T16:00:57;7.17;;;6.57;;
13799;SDS011;6971;50.028;9.258;2022-08-19T16:06:22;8.00;;;7.10;;
13799;SDS011;6971;50.028;9.258;2022-08-19T16:11:27;7.60;;;7.00;;
13799;SDS011;6971;50.028;9.258;2022-08-19T16:16:31;7.20;;;6.60;;
13799;SDS011;6971;50.028;9.258;2022-08-19T16:21:34;7.83;;;7.23;;
13799;SDS011;6971;50.028;9.258;2022-08-19T16:26:37;7.63;;;7.03;;
13799;SDS011;6971;50.028;9.258;2022-08-19T16:31:40;7.70;;;6.90;;
13799;SDS011;6971;50.028;9.258;2022-08-19T16:36:42;7.87;;;7.07;;
13799;SDS011;6971;50.028;9.258;2022-08-19T16:41:44;8.10;;;7.33;;
13799;SDS011;6971;50.028;9.258;2022-08-19T16:46:45;8.60;;;7.80;;
13799;SDS011;6971;50.028;9.258;2022-08-19T16:51:47;8.33;;;7.63;;
13799;SDS011;6971;50.028;9.258;2022-08-19T16:56:49;8.73;;;7.83;;
13799;SDS011;6971;50.028;9.258;2022-08-19T17:01:51;8.37;;;7.57;;
13799;SDS011;6971;50.028;9.258;2022-08-19T17:06:52;7.73;;;7.03;;
13799;SDS011;6971;50.028;9.258;2022-08-19T17:11:53;8.37;;;7.57;;
13799;SDS011;6971;50.028;9.258;2022-08-19T17:16:54;8.20;;;7.33;;
13799;SDS011;6971;50.028;9.258;2022-08-19T17:21:55;9.00;;;8.20;;
13799;SDS011;6971;50.028;9.258;2022-08-19T17:26:57;8.87;;;7.97;;
13799;SDS011;6971;50.028;9.258;2022-08-19T17:31:58;9.70;;;8.60;;
13799;SDS011;6971;50.028;9.258;2022-08-19T17:36:59;9.43;;;8.43;;
13799;SDS011;6971;50.028;9.258;2022-08-19T17:41:59;9.03;;;8.23;;
13799;SDS011;6971;50.028;9.258;2022-08-19T17:47:00;8.83;;;8.13;;
13799;SDS011;6971;50.028;9.258;2022-08-19T17:52:03;9.37;;;8.63;;
13799;SDS011;6971;50.028;9.258;2022-08-19T17:57:04;9.40;;;8.60;;
13799;SDS011;6971;50.028;9.258;2022-08-19T18:02:06;8.57;;;7.87;;
13799;SDS011;6971;50.028;9.258;2022-08-19T18:07:09;8.40;;;7.60;;
13799;SDS011;6971;50.028;9.258;2022-08-19T18:12:10;8.67;;;7.87;;
13799;SDS011;6971;50.028;9.258;2022-08-19T18:17:18;10.57;;;9.40;;
13799;SDS011;6971;50.028;9.258;2022-08-19T18:22:30;9.23;;;8.53;;
13799;SDS011;6971;50.028;9.258;2022-08-19T18:27:36;9.33;;;8.43;;
13799;SDS011;6971;50.028;9.258;2022-08-19T18:32:37;9.50;;;8.40;;
13799;SDS011;6971;50.028;9.258;2022-08-19T18:37:39;10.27;;;9.30;;
13799;SDS011;6971;50.028;9.258;2022-08-19T18:42:42;9.10;;;8.30;;
13799;SDS011;6971;50.028;9.258;2022-08-19T18:48:03;9.20;;;8.40;;
13799;SDS011;6971;50.028;9.258;2022-08-19T18:53:23;8.47;;;7.77;;
13799;SDS011;6971;50.028;9.258;2022-08-19T18:58:27;8.07;;;7.37;;
13799;SDS011;6971;50.028;9.258;2022-08-19T19:03:33;16.57;;;14.77;;
13799;SDS011;6971;50.028;9.258;2022-08-19T19:08:34;9.60;;;8.57;;
13799;SDS011;6971;50.028;9.258;2022-08-19T19:13:38;9.23;;;8.43;;
13799;SDS011;6971;50.028;9.258;2022-08-19T19:18:40;7.87;;;6.80;;
13799;SDS011;6971;50.028;9.258;2022-08-19T19:23:42;12.17;;;10.97;;
13799;SDS011;6971;50.028;9.258;2022-08-19T19:28:43;7.83;;;7.13;;
13799;SDS011;6971;50.028;9.258;2022-08-19T19:33:47;7.77;;;7.07;;
13799;SDS011;6971;50.028;9.258;2022-08-19T19:38:49;7.47;;;6.83;;
13799;SDS011;6971;50.028;9.258;2022-08-19T19:43:51;8.23;;;6.40;;
13799;SDS011;6971;50.028;9.258;2022-08-19T19:48:54;6.73;;;6.07;;
13799;SDS011;6971;50.028;9.258;2022-08-19T19:53:56;5.73;;;5.23;;
13799;SDS011;6971;50.028;9.258;2022-08-19T19:58:57;5.80;;;5.27;;
13799;SDS011;6971;50.028;9.258;2022-08-19T20:04:06;7.20;;;5.23;;
13799;SDS011;6971;50.028;9.258;2022-08-19T20:09:08;6.67;;;5.30;;
13799;SDS011;6971;50.028;9.258;2022-08-19T20:14:22;5.17;;;4.77;;
13799;SDS011;6971;50.028;9.258;2022-08-19T20:19:27;5.97;;;5.40;;
13799;SDS011;6971;50.028;9.258;2022-08-19T20:24:33;5.83;;;5.03;;
13799;SDS011;6971;50.028;9.258;2022-08-19T20:29:35;5.67;;;5.17;;
13799;SDS011;6971;50.028;9.258;2022-08-19T20:34:36;5.63;;;5.10;;
13799;SDS011;6971;50.028;9.258;2022-08-19T20:39:38;6.20;;;5.60;;
13799;SDS011;6971;50.028;9.258;2022-08-19T20:44:39;4.97;;;4.60;;
13799;SDS011;6971;50.028;9.258;2022-08-19T20:49:40;7.57;;;5.17;;
13799;SDS011;6971;50.028;9.258;2022-08-19T20:54:41;5.77;;;5.27;;
13799;SDS011;6971;50.028;9.258;2022-08-19T20:59:43;5.17;;;4.80;;
13799;SDS011;6971;50.028;9.258;2022-08-19T21:04:44;6.30;;;5.67;;
13799;SDS011;6971;50.028;9.258;2022-08-19T21:09:46;5.87;;;5.00;;
13799;SDS011;6971;50.028;9.258;2022-08-19T21:14:47;5.70;;;5.30;;
13799;SDS011;6971;50.028;9.258;2022-08-19T21:19:49;5.70;;;5.30;;
13799;SDS011;6971;50.028;9.258;2022-08-19T21:24:50;6.57;;;6.00;;
13799;SDS011;6971;50.028;9.258;2022-08-19T21:29:51;5.87;;;5.27;;
13799;SDS011;6971;50.028;9.258;2022-08-19T21:34:54;6.33;;;5.40;;
13799;SDS011;6971;50.028;9.258;2022-08-19T21:39:56;6.27;;;5.77;;
13799;SDS011;6971;50.028;9.258;2022-08-19T21:44:57;9.37;;;5.87;;
13799;SDS011;6971;50.028;9.258;2022-08-19T21:49:59;5.90;;;5.50;;
13799;SDS011;6971;50.028;9.258;2022-08-19T21:55:01;6.20;;;5.70;;
13799;SDS011;6971;50.028;9.258;2022-08-19T22:00:04;6.97;;;6.27;;
13799;SDS011;6971;50.028;9.258;2022-08-19T22:05:09;6.43;;;5.83;;
13799;SDS011;6971;50.028;9.258;2022-08-19T22:10:24;7.13;;;6.57;;
13799;SDS011;6971;50.028;9.258;2022-08-19T22:15:30;7.27;;;6.57;;
13799;SDS011;6971;50.028;9.258;2022-08-19T22:20:32;7.70;;;7.00;;
13799;SDS011;6971;50.028;9.258;2022-08-19T22:25:38;8.07;;;7.37;;
13799;SDS011;6971;50.028;9.258;2022-08-19T22:30:43;8.03;;;7.40;;
13799;SDS011;6971;50.028;9.258;2022-08-19T22:35:45;10.13;;;8.07;;
13799;SDS011;6971;50.028;9.258;2022-08-19T22:40:47;7.87;;;7.17;;
13799;SDS011;6971;50.028;9.258;2022-08-19T22:45:51;8.00;;;7.33;;
13799;SDS011;6971;50.028;9.258;2022-08-19T22:50:53;8.07;;;7.43;;
13799;SDS011;6971;50.028;9.258;2022-08-19T22:56:14;10.00;;;7.70;;
13799;SDS011;6971;50.028;9.258;2022-08-19T23:01:19;9.20;;;8.30;;
13799;SDS011;6971;50.028;9.258;2022-08-19T23:06:32;8.90;;;7.77;;
13799;SDS011;6971;50.028;9.258;2022-08-19T23:11:34;9.20;;;8.30;;
13799;SDS011;6971;50.028;9.258;2022-08-19T23:16:37;9.10;;;8.27;;
13799;SDS011;6971;50.028;9.258;2022-08-19T23:21:39;10.30;;;9.40;;
13799;SDS011;6971;50.028;9.258;2022-08-19T23:26:41;10.90;;;9.73;;
13799;SDS011;6971;50.028;9.258;2022-08-19T23:32:02;10.50;;;9.40;;
13799;SDS011;6971;50.028;9.258;2022-08-19T23:37:06;11.07;;;9.97;;
13799;SDS011;6971;50.028;9.258;2022-08-19T23:42:07;10.43;;;9.53;;
13799;SDS011;6971;50.028;9.258;2022-08-19T23:47:10;11.63;;;10.53;;
13799;SDS011;6971;50.028;9.258;2022-08-19T23:52:11;11.83;;;10.63;;
13799;SDS011;6971;50.028;9.258;2022-08-19T23:57:12;12.47;;;11.37;;
